Time;durP1;ratioP1;P1;durP2;ratioP2;P2;SDS_P1;SDS_P2;PMS_P1;PMS_P2;Temp;Humidity;BMP_temperature;BMP_pressure;BME280_temperature;BME280_humidity;BME280_pressure;Samples;Min_cycle;Max_cycle;Signal;HPM_P1;HPM_P2
2023/05/28 00:01:59;;;;;;;;;10.00;8.50;;;;;22.09;40.61;101285.13;5046226;28;44936;-42
2023/05/28 00:04:24;;;;;;;;;4.75;4.75;;;;;22.08;40.58;101283.41;5041284;28;45377;-41
2023/05/28 00:06:55;;;;;;;;;5.00;5.00;;;;;22.10;40.38;101289.47;5038624;28;45605;-39
2023/05/28 00:09:20;;;;;;;;;8.25;6.75;;;;;22.08;40.49;101280.78;5029375;28;47177;-40
2023/05/28 00:11:45;;;;;;;;;5.00;5.00;;;;;22.08;40.78;101286.06;5034405;28;45362;-38
2023/05/28 00:14:11;;;;;;;;;7.33;6.33;;;;;22.07;40.32;101281.72;5041177;28;56809;-40
2023/05/28 00:16:37;;;;;;;;;10.50;6.75;;;;;22.07;40.67;101282.53;5038688;28;53488;-39
2023/05/28 00:19:03;;;;;;;;;7.75;7.00;;;;;22.08;40.39;101281.63;5027608;28;45377;-39
2023/05/28 00:21:32;;;;;;;;;7.25;7.25;;;;;22.06;40.37;101277.38;5027047;28;45363;-40
2023/05/28 00:23:57;;;;;;;;;7.00;5.75;;;;;22.07;40.58;101268.50;5030596;28;45154;-39
2023/05/28 00:26:22;;;;;;;;;8.00;6.75;;;;;22.07;40.43;101279.06;5030414;28;45318;-41
2023/05/28 00:28:47;;;;;;;;;9.00;7.50;;;;;22.08;40.31;101280.78;5042252;28;46335;-39
2023/05/28 00:31:13;;;;;;;;;7.00;6.50;;;;;22.07;40.43;101269.34;5023086;28;45336;-39
2023/05/28 00:33:38;;;;;;;;;7.50;7.00;;;;;22.07;40.45;101273.78;5023345;28;45251;-40
2023/05/28 00:36:04;;;;;;;;;6.00;6.00;;;;;22.06;40.51;101266.81;5022686;28;45469;-39
2023/05/28 00:38:29;;;;;;;;;8.00;8.00;;;;;22.05;40.43;101270.38;5022668;28;45481;-40
2023/05/28 00:40:54;;;;;;;;;9.00;5.75;;;;;22.07;40.45;101268.50;5020959;28;45542;-39
2023/05/28 00:43:20;;;;;;;;;6.75;6.50;;;;;22.07;40.49;101268.50;5022883;28;45464;-41
2023/05/28 00:45:48;;;;;;;;;6.75;6.75;;;;;22.07;40.33;101265.88;5023770;28;45667;-40
2023/05/28 00:48:13;;;;;;;;;9.75;8.00;;;;;22.07;40.35;101264.06;5028185;28;47254;-42
2023/05/28 00:50:39;;;;;;;;;8.25;7.00;;;;;22.05;40.44;101260.66;5027976;28;45250;-39
2023/05/28 00:53:06;;;;;;;;;10.50;7.00;;;;;22.05;40.53;101273.00;5047690;28;44706;-38
2023/05/28 00:55:32;;;;;;;;;6.00;6.00;;;;;22.06;40.47;101272.09;5048484;28;44749;-41
2023/05/28 00:58:05;;;;;;;;;7.75;5.75;;;;;22.06;40.63;101272.91;5045520;28;45181;-41
2023/05/28 01:00:30;;;;;;;;;9.75;8.00;;;;;22.04;40.54;101264.25;5032586;28;45174;-43
2023/05/28 01:02:56;;;;;;;;;8.25;5.75;;;;;22.05;40.69;101271.22;5025802;28;45745;-42
2023/05/28 01:05:22;;;;;;;;;4.75;3.00;;;;;22.06;40.57;101269.44;5024089;28;45442;-41
2023/05/28 01:07:47;;;;;;;;;9.00;7.00;;;;;22.06;40.62;101277.38;5022743;28;45912;-39
2023/05/28 01:10:13;;;;;;;;;7.50;7.50;;;;;22.07;40.57;101279.06;5021836;28;45260;-40
2023/05/28 01:12:41;;;;;;;;;8.00;7.25;;;;;22.08;40.49;101280.78;5024576;28;45394;-40
2023/05/28 01:15:07;;;;;;;;;7.50;6.00;;;;;22.05;40.66;101276.50;5020842;28;45485;-39
2023/05/28 01:17:33;;;;;;;;;6.00;6.00;;;;;22.06;40.64;101272.09;5021784;28;46246;-41
2023/05/28 01:20:10;;;;;;;;;9.25;8.50;;;;;22.04;40.79;101280.09;5024186;28;45413;-39
2023/05/28 01:22:40;;;;;;;;;10.00;6.25;;;;;22.06;40.66;101277.38;5030350;28;44697;-40
2023/05/28 01:25:10;;;;;;;;;10.00;8.50;;;;;22.04;40.71;101284.50;5025634;28;45342;-39
2023/05/28 01:27:42;;;;;;;;;9.25;7.50;;;;;22.05;40.58;101278.28;5041136;28;46288;-40
2023/05/28 01:30:12;;;;;;;;;7.50;6.75;;;;;22.05;40.72;101278.28;5038060;28;45421;-39
2023/05/28 01:32:40;;;;;;;;;8.00;6.00;;;;;22.05;40.56;101283.56;5030789;28;45375;-39
2023/05/28 01:35:08;;;;;;;;;9.00;6.50;;;;;22.06;40.40;101287.91;5027558;28;45382;-40
2023/05/28 01:37:39;;;;;;;;;6.50;5.00;;;;;22.05;40.79;101286.22;5023714;28;46656;-41
2023/05/28 01:40:07;;;;;;;;;6.25;6.25;;;;;22.03;40.67;101281.03;5019800;28;45872;-40
2023/05/28 01:42:34;;;;;;;;;10.75;8.00;;;;;22.05;40.59;101287.06;5021952;28;45336;-38
2023/05/28 01:45:01;;;;;;;;;7.50;6.00;;;;;22.05;40.57;101283.56;5023729;28;45651;-39
2023/05/28 01:47:29;;;;;;;;;7.75;6.75;;;;;22.06;40.59;101287.91;5026292;28;45357;-39
2023/05/28 01:49:54;;;;;;;;;6.00;5.00;;;;;22.06;40.58;101287.91;5018656;28;45335;-40
2023/05/28 01:52:20;;;;;;;;;9.75;8.25;;;;;22.05;40.69;101288.84;5018653;28;45451;-40
2023/05/28 01:54:45;;;;;;;;;9.75;7.00;;;;;22.06;40.62;101287.91;5018504;28;45664;-41
2023/05/28 01:57:11;;;;;;;;;7.25;7.00;;;;;22.06;40.82;101282.66;5018001;28;47001;-40
2023/05/28 01:59:37;;;;;;;;;9.00;7.00;;;;;22.04;40.68;101266.03;5018296;28;45469;-41
2023/05/28 02:02:02;;;;;;;;;8.50;7.75;;;;;22.05;40.77;101267.75;5020468;28;45283;-39
2023/05/28 02:04:28;;;;;;;;;10.00;8.00;;;;;22.05;40.71;101271.22;5019687;28;45469;-38
2023/05/28 02:06:53;;;;;;;;;10.75;5.00;;;;;22.04;40.87;101266.03;5018730;28;46016;-39
2023/05/28 02:09:18;;;;;;;;;7.00;7.00;;;;;22.06;40.91;101272.09;5017883;28;62935;-39
2023/05/28 02:11:43;;;;;;;;;8.25;8.00;;;;;22.04;41.05;101271.31;5022297;28;45421;-39
2023/05/28 02:14:14;;;;;;;;;7.25;6.00;;;;;22.05;40.49;101278.28;5026566;28;45546;-39
2023/05/28 02:16:49;;;;;;;;;7.50;6.00;;;;;22.03;40.54;101275.75;5018605;28;46230;-41
2023/05/28 02:19:15;;;;;;;;;8.00;6.00;;;;;22.04;40.79;101277.47;5017455;28;45787;-39
2023/05/28 02:21:40;;;;;;;;;8.25;6.00;;;;;22.03;41.00;101275.75;5017394;28;45514;-40
2023/05/28 02:24:06;;;;;;;;;11.25;7.25;;;;;22.03;40.97;101281.03;5022249;28;45845;-39
2023/05/28 02:26:32;;;;;;;;;7.00;6.75;;;;;22.04;40.99;101281.88;5020570;28;47501;-40
2023/05/28 02:28:57;;;;;;;;;6.50;6.00;;;;;22.04;40.86;101287.16;5020552;28;45308;-39
2023/05/28 02:31:22;;;;;;;;;9.25;8.00;;;;;22.05;40.91;101280.94;5019734;28;45381;-41
2023/05/28 02:33:47;;;;;;;;;6.33;6.33;;;;;22.04;40.72;101289.78;5021215;28;55371;-41
2023/05/28 02:36:13;;;;;;;;;8.25;7.50;;;;;22.03;40.66;101278.41;5017570;28;66833;-39
2023/05/28 02:38:40;;;;;;;;;8.75;6.50;;;;;22.03;41.00;101280.16;5018659;28;45478;-40
2023/05/28 02:41:05;;;;;;;;;5.25;5.25;;;;;22.03;40.86;101283.66;5039521;28;45276;-40
2023/05/28 02:43:31;;;;;;;;;14.00;7.25;;;;;22.03;40.98;101283.66;5020701;28;45558;-41
2023/05/28 02:45:56;;;;;;;;;7.25;7.25;;;;;22.02;40.98;101283.72;5018921;28;46017;-39
2023/05/28 02:48:22;;;;;;;;;9.50;8.00;;;;;22.03;41.03;101282.81;5018441;28;45387;-39
2023/05/28 02:50:47;;;;;;;;;11.50;7.00;;;;;22.04;40.88;101284.50;5018058;28;45359;-39
2023/05/28 02:53:12;;;;;;;;;6.75;6.25;;;;;22.03;40.84;101285.44;5020897;28;45508;-39
2023/05/28 02:55:38;;;;;;;;;6.00;5.00;;;;;22.03;40.73;101282.81;5020666;28;56615;-39
2023/05/28 02:58:05;;;;;;;;;7.00;7.00;;;;;22.04;40.87;101279.22;5021297;28;45161;-41
2023/05/28 03:00:30;;;;;;;;;9.50;7.00;;;;;22.04;40.94;101276.59;5020685;28;45379;-38
2023/05/28 03:02:56;;;;;;;;;8.25;6.25;;;;;22.03;40.77;101278.41;5018517;28;45448;-39
2023/05/28 03:05:22;;;;;;;;;6.50;6.50;;;;;22.02;41.17;101278.44;5019382;28;46134;-41
2023/05/28 03:07:48;;;;;;;;;8.25;7.25;;;;;22.03;41.22;101272.25;5024043;28;45409;-40
2023/05/28 03:10:13;;;;;;;;;9.00;6.25;;;;;22.01;41.07;101274.97;5029158;28;45492;-41
2023/05/28 03:12:38;;;;;;;;;9.25;6.25;;;;;22.03;40.99;101273.13;5035948;28;44800;-41
2023/05/28 03:15:04;;;;;;;;;7.00;5.00;;;;;22.02;40.95;101273.19;5021365;28;46912;-40
2023/05/28 03:17:29;;;;;;;;;7.00;7.00;;;;;22.02;40.93;101276.69;5021947;28;45765;-40
2023/05/28 03:19:55;;;;;;;;;8.75;7.75;;;;;22.02;40.99;101281.97;5018801;28;45327;-40
2023/05/28 03:22:21;;;;;;;;;7.00;6.00;;;;;22.01;40.91;101274.09;5018047;28;45347;-39
2023/05/28 03:24:46;;;;;;;;;8.00;6.75;;;;;22.03;41.09;101277.53;5024250;28;46129;-39
2023/05/28 03:27:12;;;;;;;;;8.75;7.75;;;;;22.02;40.87;101275.81;5025648;28;45483;-40
2023/05/28 03:29:37;;;;;;;;;8.00;7.00;;;;;22.02;40.92;101275.81;5021705;28;45351;-40
2023/05/28 03:32:03;;;;;;;;;7.50;7.00;;;;;22.01;40.96;101274.09;5023058;28;45362;-40
2023/05/28 03:34:28;;;;;;;;;6.25;5.50;;;;;22.02;41.12;101273.19;5022389;28;47467;-40
2023/05/28 03:36:53;;;;;;;;;8.00;7.00;;;;;22.02;40.82;101273.19;5021280;28;61176;-41
2023/05/28 03:39:19;;;;;;;;;7.50;5.50;;;;;22.02;41.08;101278.44;5021293;28;45359;-39
2023/05/28 03:41:44;;;;;;;;;7.00;6.00;;;;;22.01;41.11;101274.97;5030459;28;45322;-40
2023/05/28 03:44:10;;;;;;;;;8.25;7.00;;;;;22.01;41.02;101267.06;5024159;28;45415;-40
2023/05/28 03:46:35;;;;;;;;;8.25;7.00;;;;;22.02;41.18;101270.53;5018854;28;45435;-39
2023/05/28 03:49:01;;;;;;;;;9.25;6.25;;;;;22.02;41.04;101271.41;5021002;28;45390;-40
2023/05/28 03:51:26;;;;;;;;;6.25;5.50;;;;;22.00;41.19;101267.13;5020638;28;45323;-39
2023/05/28 03:53:52;;;;;;;;;6.75;6.00;;;;;22.02;41.14;101274.03;5017551;28;46235;-41
2023/05/28 03:56:19;;;;;;;;;8.00;8.00;;;;;22.02;41.20;101267.91;5016684;28;45386;-39
2023/05/28 03:58:45;;;;;;;;;8.25;7.50;;;;;22.01;41.17;101274.97;5016829;28;45308;-40
2023/05/28 04:01:10;;;;;;;;;8.25;6.50;;;;;22.00;41.05;101273.28;5035514;28;45528;-40
2023/05/28 04:03:35;;;;;;;;;6.75;6.25;;;;;22.02;41.11;101275.81;5018942;28;45729;-41
2023/05/28 04:06:02;;;;;;;;;8.00;7.00;;;;;22.01;41.11;101269.69;5020687;28;45346;-38
2023/05/28 04:08:28;;;;;;;;;9.00;6.75;;;;;22.02;41.05;101283.72;5038585;28;45286;-41
2023/05/28 04:10:53;;;;;;;;;10.50;8.50;;;;;22.02;41.06;101278.44;5020527;28;45474;-41
2023/05/28 04:13:18;;;;;;;;;7.00;7.00;;;;;22.02;41.17;101287.25;5019161;28;45364;-39
2023/05/28 04:15:44;;;;;;;;;7.50;7.50;;;;;22.02;41.14;101286.38;5019713;28;52983;-41
2023/05/28 04:18:09;;;;;;;;;7.00;7.00;;;;;22.00;41.17;101291.75;5017315;28;45391;-39
2023/05/28 04:20:35;;;;;;;;;9.50;7.00;;;;;22.01;41.00;101285.53;5016318;28;45489;-43
2023/05/28 04:23:01;;;;;;;;;7.00;6.00;;;;;22.01;41.12;101284.66;5016543;28;46437;-39
2023/05/28 04:25:26;;;;;;;;;7.00;6.00;;;;;22.01;41.18;101282.03;5016357;28;45367;-39
2023/05/28 04:27:52;;;;;;;;;6.75;5.25;;;;;22.02;41.26;101283.72;5020735;28;45473;-39
2023/05/28 04:30:17;;;;;;;;;6.50;5.25;;;;;22.01;41.05;101276.75;5022235;28;45324;-39
2023/05/28 04:32:42;;;;;;;;;7.50;7.50;;;;;22.02;41.08;101286.38;5023060;28;46126;-45
2023/05/28 04:35:08;;;;;;;;;7.67;6.00;;;;;22.02;41.06;101286.38;5020116;28;56559;-41
2023/05/28 04:37:36;;;;;;;;;7.00;7.00;;;;;22.02;40.99;101283.72;5016593;28;45507;-41
2023/05/28 04:40:03;;;;;;;;;8.50;6.75;;;;;22.02;41.30;101292.53;5019775;28;45197;-43
2023/05/28 04:42:29;;;;;;;;;7.00;6.50;;;;;22.02;41.25;101295.16;5022302;28;46170;-41
2023/05/28 04:44:55;;;;;;;;;6.50;5.00;;;;;22.03;41.35;101288.09;5026889;28;45635;-40
2023/05/28 04:47:22;;;;;;;;;6.50;6.50;;;;;22.03;41.29;101293.34;5025471;28;45404;-40
2023/05/28 04:49:48;;;;;;;;;7.00;5.75;;;;;22.02;41.27;101295.16;5030239;28;45616;-40
2023/05/28 04:52:14;;;;;;;;;7.50;7.00;;;;;22.01;41.24;101301.38;5041372;28;45466;-40
2023/05/28 04:54:39;;;;;;;;;9.00;8.00;;;;;22.02;41.36;101303.06;5037307;28;55528;-41
2023/05/28 04:57:04;;;;;;;;;6.00;6.00;;;;;22.02;41.30;101302.22;5039699;28;57135;-43
2023/05/28 04:59:30;;;;;;;;;8.00;8.00;;;;;22.03;41.52;101303.91;5037226;28;44964;-43
2023/05/28 05:01:55;;;;;;;;;7.25;6.75;;;;;22.03;41.44;101304.78;5029443;28;46348;-52
2023/05/28 05:04:21;;;;;;;;;9.33;8.33;;;;;22.03;41.17;101303.91;5024657;28;59665;-41
2023/05/28 05:06:46;;;;;;;;;49.25;40.50;;;;;22.04;41.26;101300.34;5036979;28;45367;-40
2023/05/28 05:09:11;;;;;;;;;51.00;41.67;;;;;22.04;41.39;101295.06;5032522;28;45484;-40
2023/05/28 05:11:37;;;;;;;;;143.67;129.33;;;;;22.04;41.52;101305.63;5037472;28;60943;-42
2023/05/28 05:14:02;;;;;;;;;202.00;180.00;;;;;22.04;41.69;101306.50;5019841;28;45366;-42
2023/05/28 05:16:28;;;;;;;;;196.00;182.67;;;;;22.08;41.70;101309.81;5020885;28;45411;-41
2023/05/28 05:18:54;;;;;;;;;254.25;228.00;;;;;22.05;41.81;101302.88;5026599;28;45530;-41
2023/05/28 05:21:20;;;;;;;;;234.00;207.75;;;;;22.07;41.68;101305.47;5028896;28;46332;-41
2023/05/28 05:23:45;;;;;;;;;218.00;197.50;;;;;22.08;41.61;101307.19;5032242;28;44718;-41
2023/05/28 05:26:12;;;;;;;;;240.00;221.25;;;;;22.09;41.86;101311.53;5035581;28;44788;-43
2023/05/28 05:28:38;;;;;;;;;259.25;237.75;;;;;22.09;41.68;101314.16;5034863;28;45343;-42
2023/05/28 05:31:03;;;;;;;;;307.80;284.40;;;;;22.09;42.02;101315.00;5035099;28;45350;-42
2023/05/28 05:33:29;;;;;;;;;342.33;316.00;;;;;22.10;41.91;101318.50;5037019;28;44768;-41
2023/05/28 05:35:54;;;;;;;;;318.00;287.25;;;;;22.10;41.63;101310.59;5031273;28;45255;-41
2023/05/28 05:38:20;;;;;;;;;309.67;274.67;;;;;22.10;41.71;101307.94;5025597;28;45305;-41
2023/05/28 05:40:45;;;;;;;;;297.25;276.75;;;;;22.11;41.68;101306.97;5020133;28;46008;-42
2023/05/28 05:43:10;;;;;;;;;316.00;280.50;;;;;22.12;41.82;101307.84;5020999;28;49672;-42
2023/05/28 05:45:35;;;;;;;;;283.25;256.75;;;;;22.11;41.45;101312.25;5023494;28;45541;-40
2023/05/28 05:48:01;;;;;;;;;269.50;249.75;;;;;22.15;41.78;101313.81;5023937;28;45566;-40
2023/05/28 05:50:26;;;;;;;;;270.00;248.00;;;;;22.18;41.68;101318.06;5040273;28;46044;-41
2023/05/28 05:52:52;;;;;;;;;250.00;225.00;;;;;22.18;41.81;101318.94;5027114;28;45425;-41
2023/05/28 05:55:17;;;;;;;;;235.00;210.33;;;;;22.18;41.71;101316.28;5039884;28;45392;-40
2023/05/28 05:57:43;;;;;;;;;241.33;214.33;;;;;22.18;41.69;101313.66;5033094;28;45742;-40
2023/05/28 06:00:10;;;;;;;;;250.00;233.75;;;;;22.19;41.68;101310.06;5019806;28;46347;-41
2023/05/28 06:02:37;;;;;;;;;236.75;216.25;;;;;22.20;41.76;101311.78;5033738;28;45348;-40
2023/05/28 06:05:03;;;;;;;;;237.50;218.50;;;;;22.20;41.76;101310.91;5018386;28;45425;-40
2023/05/28 06:07:29;;;;;;;;;243.00;226.50;;;;;22.20;41.76;101306.50;5020968;28;45437;-40
2023/05/28 06:09:55;;;;;;;;;232.00;216.75;;;;;22.21;41.44;101312.63;5021608;28;46669;-41
2023/05/28 06:12:20;;;;;;;;;241.75;223.25;;;;;22.21;41.34;101310.81;5022048;28;45343;-42
2023/05/28 06:14:47;;;;;;;;;241.50;224.75;;;;;22.21;41.44;101304.69;5019843;28;45512;-40
2023/05/28 06:17:12;;;;;;;;;234.25;214.75;;;;;22.21;41.55;101310.81;5024863;28;45546;-41
2023/05/28 06:19:38;;;;;;;;;229.67;216.67;;;;;22.21;41.20;101302.06;5030851;28;46638;-42
2023/05/28 06:22:04;;;;;;;;;228.00;210.75;;;;;22.22;41.33;101309.88;5026420;28;45233;-43
2023/05/28 06:24:29;;;;;;;;;217.50;201.25;;;;;22.23;41.43;101305.47;5018768;28;45283;-41
2023/05/28 06:26:55;;;;;;;;;214.33;192.00;;;;;22.24;41.26;101312.47;5032310;28;45408;-42
2023/05/28 06:29:20;;;;;;;;;208.33;191.00;;;;;22.24;41.26;101312.47;5043088;28;46730;-42
2023/05/28 06:31:46;;;;;;;;;205.25;191.25;;;;;22.24;41.03;101308.03;5043539;28;44751;-41
2023/05/28 06:34:11;;;;;;;;;206.00;183.50;;;;;22.24;41.52;101307.19;5025198;28;45339;-41
2023/05/28 06:36:37;;;;;;;;;184.67;172.67;;;;;22.24;41.37;101308.03;5035968;28;44906;-40
2023/05/28 06:39:04;;;;;;;;;182.33;166.67;;;;;22.26;41.29;101304.44;5034281;28;45377;-41
2023/05/28 06:41:30;;;;;;;;;185.00;174.25;;;;;22.25;41.67;101303.59;5037114;28;45165;-41
2023/05/28 06:43:55;;;;;;;;;176.50;160.25;;;;;22.24;41.50;101310.66;5029340;28;45227;-39
2023/05/28 06:46:21;;;;;;;;;174.67;165.33;;;;;22.27;41.27;101314.91;5018658;28;45371;-41
2023/05/28 06:48:46;;;;;;;;;167.75;153.50;;;;;22.27;41.54;101308.78;5018077;28;46086;-40
2023/05/28 06:51:12;;;;;;;;;159.25;150.00;;;;;22.27;41.21;101306.16;5016732;28;45351;-41
2023/05/28 06:53:38;;;;;;;;;163.50;148.00;;;;;22.27;41.69;101312.28;5018321;28;45371;-40
2023/05/28 06:56:05;;;;;;;;;149.75;142.00;;;;;22.29;41.26;101307.75;5018086;28;45529;-40
2023/05/28 06:58:30;;;;;;;;;153.75;138.50;;;;;22.28;41.33;101310.50;5017575;28;46108;-41
2023/05/28 07:00:56;;;;;;;;;145.00;133.75;;;;;22.29;41.62;101314.84;5019556;28;45449;-40
2023/05/28 07:03:21;;;;;;;;;137.00;124.67;;;;;22.29;41.45;101314.84;5020324;28;45497;-40
2023/05/28 07:05:47;;;;;;;;;139.50;126.00;;;;;22.30;41.28;101312.09;5033864;28;45252;-40
2023/05/28 07:08:13;;;;;;;;;140.25;125.00;;;;;22.31;41.12;101318.25;5026388;28;46150;-40
2023/05/28 07:10:38;;;;;;;;;129.00;121.75;;;;;22.31;41.55;101312.97;5030892;28;45425;-42
2023/05/28 07:13:03;;;;;;;;;124.67;118.67;;;;;22.32;41.66;101312.88;5019375;28;45349;-42
2023/05/28 07:15:29;;;;;;;;;124.75;112.00;;;;;22.32;41.55;101320.81;5018055;28;45328;-40
2023/05/28 07:17:55;;;;;;;;;123.00;111.50;;;;;22.33;41.34;101316.34;5016584;28;45391;-40
2023/05/28 07:20:20;;;;;;;;;124.50;113.50;;;;;22.34;41.40;101318.06;5016964;28;45272;-41
2023/05/28 07:22:46;;;;;;;;;113.75;101.75;;;;;22.35;41.53;101322.41;5018018;28;45393;-40
2023/05/28 07:25:11;;;;;;;;;114.00;105.00;;;;;22.34;41.52;101313.66;5021788;28;45150;-41
2023/05/28 07:27:37;;;;;;;;;111.25;100.25;;;;;22.35;41.43;101311.84;5020877;28;45963;-40
2023/05/28 07:30:03;;;;;;;;;93.00;89.00;;;;;22.37;41.65;101318.78;5024483;28;45167;-40
2023/05/28 07:32:28;;;;;;;;;82.50;73.75;;;;;22.38;41.40;101314.34;5035166;28;45216;-40
2023/05/28 07:34:53;;;;;;;;;74.67;58.33;;;;;22.38;41.33;101309.88;5023902;28;45305;-41
2023/05/28 07:37:18;;;;;;;;;82.67;72.67;;;;;22.39;41.41;101316.03;5040250;28;48255;-40
2023/05/28 07:39:44;;;;;;;;;81.00;73.67;;;;;22.38;41.66;101304.59;5028331;28;46462;-40
2023/05/28 07:42:10;;;;;;;;;79.00;70.33;;;;;22.41;41.39;101311.56;5023094;28;45544;-39
2023/05/28 07:44:36;;;;;;;;;80.50;72.00;;;;;22.42;41.29;101309.75;5021960;28;45237;-39
2023/05/28 07:47:01;;;;;;;;;74.50;64.25;;;;;22.44;41.55;101316.66;5025614;28;47376;-40
2023/05/28 07:49:26;;;;;;;;;71.00;56.50;;;;;22.46;41.29;101317.41;5022675;28;45285;-40
2023/05/28 07:51:52;;;;;;;;;76.00;60.33;;;;;22.49;41.03;101319.06;5018277;28;45371;-42
2023/05/28 07:54:17;;;;;;;;;68.75;55.00;;;;;22.49;41.20;101314.63;5022336;28;45343;-40
2023/05/28 07:56:43;;;;;;;;;72.25;55.75;;;;;22.51;41.18;101310.09;5022325;28;46018;-40
2023/05/28 07:59:08;;;;;;;;;70.00;55.00;;;;;22.52;41.28;101308.31;5023775;28;45418;-41
2023/05/28 08:01:34;;;;;;;;;68.75;53.25;;;;;22.52;41.64;101305.66;5020035;28;45383;-40
2023/05/28 08:04:00;;;;;;;;;68.00;52.25;;;;;22.52;41.26;101300.38;5022367;28;45330;-41
2023/05/28 08:06:26;;;;;;;;;68.25;53.75;;;;;22.55;41.09;101306.31;5022386;28;46163;-41
2023/05/28 08:08:51;;;;;;;;;67.75;51.50;;;;;22.57;41.19;101308.03;5034688;28;45162;-40
2023/05/28 08:11:17;;;;;;;;;66.50;52.25;;;;;22.58;41.28;101301.81;5033131;28;45256;-41
2023/05/28 08:13:42;;;;;;;;;64.25;50.00;;;;;22.56;41.36;101299.28;5017961;28;45383;-40
2023/05/28 08:16:11;;;;;;;;;62.33;49.00;;;;;22.59;41.13;101301.75;5017966;28;54115;-40
2023/05/28 08:18:36;;;;;;;;;58.25;46.75;;;;;22.59;40.96;101295.59;5019062;28;45467;-41
2023/05/28 08:21:02;;;;;;;;;56.50;44.50;;;;;22.60;40.95;101297.31;5024428;28;45296;-39
2023/05/28 08:23:27;;;;;;;;;53.50;44.00;;;;;22.60;40.97;101297.31;5024825;28;45450;-40
2023/05/28 08:25:52;;;;;;;;;53.00;38.75;;;;;22.62;41.22;101298.06;5023465;28;46103;-39
2023/05/28 08:28:18;;;;;;;;;50.00;40.50;;;;;22.60;40.92;101292.03;5023787;28;45376;-41
2023/05/28 08:30:43;;;;;;;;;53.50;42.25;;;;;22.60;41.06;101292.84;5022112;28;45417;-41
2023/05/28 08:33:08;;;;;;;;;50.33;39.33;;;;;22.61;41.00;101291.09;5024617;28;45589;-43
